الصفحة الرئيسية
METAR-TAF:

METAR-TAF

مطار :

بروكسل, بلجيكا

مطار بروكسل الدولي

دائرة عرض: 50-54N, خط طول: 004-32E, ارتفاع: 55 متر

مراقبة الطقس الحالي

تاريخ ووقت الإصدار 37 دقيقة قبل الساعة 18:20UTC
ريح 10 عقدة من الشمال الشرقي
درجة الحرارة 1°درجة مئوية
الرطوبة 59%
ضغط 1021 hPa
الرؤية 10 كم أو أكثر
الغيوم لا تقل 1500 م ولا وجود لمزنة ركامية السحاب الأسود

METAR: EBBR 221820Z 05010KT CAVOK 01/M06 Q1021 NOSIG

زمن: 19:57 (18:57 UTC)

توقعات

تاريخ ووقت الإصدار 1ساعة و 56 دقيقة قبل الساعة 17:01UTC
التوقعات صالحة من22 الساعة 18 UTC إلى 23 الساعة 24 UTC
ريح 8 عقدة من الشرق/الشمال الشرقي
الرؤية 10 كم أو أكثر
الغيوم لا تقل 1500 م ولا وجود لمزنة ركامية السحاب الأسود
مؤقت
من 23 الساعة 11 UTC إلى 23 الساعة 16 UTC
ريح 15 عقدة من الشرق/الشمال الشرقي تتزايد حتى 25 عقدة

TAF: EBBR 221701Z 2218/2324 06008KT CAVOK TEMPO 2311/2316 06015G25KT

أرصاد الطقس والتوقعات من أكثر من 4000 مطار (تقارير الطقس للمطار METAR والتنبؤ بالطقس بالمطارTAF).

المحطات المتاحة هي النقط الصفراء والحمراء على الخريطة.

حرك المؤشر فوق النقطة لمعرفة اسم المحطة.

ثم انقر لمعرفة أرصاد وتوقعات الطقس.

لتغيير الخارطة: اضغط على الأزرار الخضراء مع رمز الصليب الأسود للتكبير. على الزر الأخضر مع شرطة للتصغير، أو على الأسهم الخضراء للخرائط المجاورة.


METAR-TAF: